sensor_id;sensor_type;location;lat;lon;timestamp;P1;durP1;ratioP1;P2;durP2;ratioP2
3625;SDS011;1827;50.534;8.316;2022-10-18T00:01:06;35.10;;;8.57;;
3625;SDS011;1827;50.534;8.316;2022-10-18T00:03:33;32.50;;;8.00;;
3625;SDS011;1827;50.534;8.316;2022-10-18T00:05:59;25.57;;;7.37;;
3625;SDS011;1827;50.534;8.316;2022-10-18T00:08:26;46.57;;;7.33;;
3625;SDS011;1827;50.534;8.316;2022-10-18T00:10:52;35.63;;;9.17;;
3625;SDS011;1827;50.534;8.316;2022-10-18T00:13:18;27.20;;;6.60;;
3625;SDS011;1827;50.534;8.316;2022-10-18T00:15:48;26.30;;;6.70;;
3625;SDS011;1827;50.534;8.316;2022-10-18T00:18:14;29.93;;;7.53;;
3625;SDS011;1827;50.534;8.316;2022-10-18T00:20:40;48.00;;;7.97;;
3625;SDS011;1827;50.534;8.316;2022-10-18T00:23:05;37.33;;;8.10;;
3625;SDS011;1827;50.534;8.316;2022-10-18T00:25:31;34.33;;;8.00;;
3625;SDS011;1827;50.534;8.316;2022-10-18T00:27:57;45.50;;;8.20;;
3625;SDS011;1827;50.534;8.316;2022-10-18T00:30:23;45.17;;;8.13;;
3625;SDS011;1827;50.534;8.316;2022-10-18T00:32:49;30.53;;;7.90;;
3625;SDS011;1827;50.534;8.316;2022-10-18T00:35:15;35.73;;;7.80;;
3625;SDS011;1827;50.534;8.316;2022-10-18T00:37:41;25.50;;;7.30;;
3625;SDS011;1827;50.534;8.316;2022-10-18T00:40:07;41.70;;;7.50;;
3625;SDS011;1827;50.534;8.316;2022-10-18T00:42:34;34.80;;;8.03;;
3625;SDS011;1827;50.534;8.316;2022-10-18T00:47:29;26.87;;;7.33;;
3625;SDS011;1827;50.534;8.316;2022-10-18T00:49:56;43.03;;;7.50;;
3625;SDS011;1827;50.534;8.316;2022-10-18T00:52:26;33.10;;;8.60;;
3625;SDS011;1827;50.534;8.316;2022-10-18T00:55:01;47.87;;;8.70;;
3625;SDS011;1827;50.534;8.316;2022-10-18T00:57:28;39.37;;;9.23;;
3625;SDS011;1827;50.534;8.316;2022-10-18T00:59:53;33.97;;;8.87;;
3625;SDS011;1827;50.534;8.316;2022-10-18T01:02:19;30.93;;;8.00;;
3625;SDS011;1827;50.534;8.316;2022-10-18T01:04:46;37.23;;;8.80;;
3625;SDS011;1827;50.534;8.316;2022-10-18T01:12:50;28.83;;;7.90;;
3625;SDS011;1827;50.534;8.316;2022-10-18T01:15:32;33.30;;;7.97;;
3625;SDS011;1827;50.534;8.316;2022-10-18T01:18:24;27.43;;;7.20;;
3625;SDS011;1827;50.534;8.316;2022-10-18T01:26:31;35.73;;;7.30;;
3625;SDS011;1827;50.534;8.316;2022-10-18T01:29:14;28.63;;;8.20;;
3625;SDS011;1827;50.534;8.316;2022-10-18T01:32:00;36.10;;;8.00;;
3625;SDS011;1827;50.534;8.316;2022-10-18T01:34:30;30.90;;;8.37;;
3625;SDS011;1827;50.534;8.316;2022-10-18T01:36:58;37.07;;;8.03;;
3625;SDS011;1827;50.534;8.316;2022-10-18T01:39:28;30.80;;;8.70;;
3625;SDS011;1827;50.534;8.316;2022-10-18T01:41:58;35.90;;;8.97;;
3625;SDS011;1827;50.534;8.316;2022-10-18T01:44:27;30.93;;;7.93;;
3625;SDS011;1827;50.534;8.316;2022-10-18T01:46:55;31.20;;;9.07;;
3625;SDS011;1827;50.534;8.316;2022-10-18T01:49:23;43.13;;;9.10;;
3625;SDS011;1827;50.534;8.316;2022-10-18T01:51:50;36.63;;;9.83;;
3625;SDS011;1827;50.534;8.316;2022-10-18T01:54:16;35.17;;;9.70;;
3625;SDS011;1827;50.534;8.316;2022-10-18T01:56:54;34.13;;;10.03;;
3625;SDS011;1827;50.534;8.316;2022-10-18T02:10:49;35.57;;;9.73;;
3625;SDS011;1827;50.534;8.316;2022-10-18T02:13:24;26.73;;;9.03;;
3625;SDS011;1827;50.534;8.316;2022-10-18T02:15:55;29.70;;;8.20;;
3625;SDS011;1827;50.534;8.316;2022-10-18T02:18:28;29.83;;;9.10;;
3625;SDS011;1827;50.534;8.316;2022-10-18T02:21:02;30.70;;;8.70;;
3625;SDS011;1827;50.534;8.316;2022-10-18T02:23:31;33.47;;;8.70;;
3625;SDS011;1827;50.534;8.316;2022-10-18T02:25:58;24.87;;;8.20;;
3625;SDS011;1827;50.534;8.316;2022-10-18T02:28:25;25.20;;;8.07;;
3625;SDS011;1827;50.534;8.316;2022-10-18T02:33:44;27.83;;;8.33;;
3625;SDS011;1827;50.534;8.316;2022-10-18T02:36:30;25.40;;;7.90;;
3625;SDS011;1827;50.534;8.316;2022-10-18T02:39:02;25.70;;;7.60;;
3625;SDS011;1827;50.534;8.316;2022-10-18T02:41:32;28.20;;;9.83;;
3625;SDS011;1827;50.534;8.316;2022-10-18T02:43:58;24.60;;;7.90;;
3625;SDS011;1827;50.534;8.316;2022-10-18T02:46:24;25.43;;;8.60;;
3625;SDS011;1827;50.534;8.316;2022-10-18T02:48:50;28.13;;;8.50;;
3625;SDS011;1827;50.534;8.316;2022-10-18T02:51:16;28.43;;;7.73;;
3625;SDS011;1827;50.534;8.316;2022-10-18T02:53:41;28.00;;;9.00;;
3625;SDS011;1827;50.534;8.316;2022-10-18T02:56:07;31.90;;;9.43;;
3625;SDS011;1827;50.534;8.316;2022-10-18T02:58:33;33.63;;;9.87;;
3625;SDS011;1827;50.534;8.316;2022-10-18T03:00:58;32.43;;;9.67;;
3625;SDS011;1827;50.534;8.316;2022-10-18T03:03:24;25.50;;;9.67;;
3625;SDS011;1827;50.534;8.316;2022-10-18T03:05:50;27.00;;;8.90;;
3625;SDS011;1827;50.534;8.316;2022-10-18T03:08:17;36.23;;;8.43;;
3625;SDS011;1827;50.534;8.316;2022-10-18T03:10:43;28.70;;;7.60;;
3625;SDS011;1827;50.534;8.316;2022-10-18T03:13:09;22.97;;;8.00;;
3625;SDS011;1827;50.534;8.316;2022-10-18T03:15:35;23.73;;;8.30;;
3625;SDS011;1827;50.534;8.316;2022-10-18T03:18:01;26.40;;;7.73;;
3625;SDS011;1827;50.534;8.316;2022-10-18T03:20:27;20.90;;;7.50;;
3625;SDS011;1827;50.534;8.316;2022-10-18T03:22:53;23.50;;;7.20;;
3625;SDS011;1827;50.534;8.316;2022-10-18T03:25:19;31.40;;;7.37;;
3625;SDS011;1827;50.534;8.316;2022-10-18T03:27:44;28.60;;;7.30;;
3625;SDS011;1827;50.534;8.316;2022-10-18T03:30:10;27.90;;;8.17;;
3625;SDS011;1827;50.534;8.316;2022-10-18T03:32:38;22.70;;;7.87;;
3625;SDS011;1827;50.534;8.316;2022-10-18T03:35:05;24.20;;;7.90;;
3625;SDS011;1827;50.534;8.316;2022-10-18T03:37:31;26.10;;;8.27;;
3625;SDS011;1827;50.534;8.316;2022-10-18T03:39:57;22.77;;;7.53;;
3625;SDS011;1827;50.534;8.316;2022-10-18T03:42:23;25.27;;;8.77;;
3625;SDS011;1827;50.534;8.316;2022-10-18T03:44:49;29.33;;;8.20;;
3625;SDS011;1827;50.534;8.316;2022-10-18T03:47:14;25.33;;;9.00;;
3625;SDS011;1827;50.534;8.316;2022-10-18T03:49:40;22.90;;;7.33;;
3625;SDS011;1827;50.534;8.316;2022-10-18T03:52:06;36.63;;;7.47;;
3625;SDS011;1827;50.534;8.316;2022-10-18T03:54:32;29.40;;;6.70;;
3625;SDS011;1827;50.534;8.316;2022-10-18T03:56:57;22.50;;;6.77;;
3625;SDS011;1827;50.534;8.316;2022-10-18T03:59:23;41.77;;;7.60;;
3625;SDS011;1827;50.534;8.316;2022-10-18T04:01:49;20.70;;;6.33;;
3625;SDS011;1827;50.534;8.316;2022-10-18T04:04:14;27.77;;;6.93;;
3625;SDS011;1827;50.534;8.316;2022-10-18T04:06:40;27.87;;;8.40;;
3625;SDS011;1827;50.534;8.316;2022-10-18T04:09:06;27.13;;;8.03;;
3625;SDS011;1827;50.534;8.316;2022-10-18T04:11:32;27.10;;;6.67;;
3625;SDS011;1827;50.534;8.316;2022-10-18T04:13:57;29.77;;;6.70;;
3625;SDS011;1827;50.534;8.316;2022-10-18T04:16:23;30.57;;;6.20;;
3625;SDS011;1827;50.534;8.316;2022-10-18T04:18:49;23.37;;;6.20;;
3625;SDS011;1827;50.534;8.316;2022-10-18T04:21:15;20.20;;;5.80;;
3625;SDS011;1827;50.534;8.316;2022-10-18T04:23:41;20.23;;;5.80;;
3625;SDS011;1827;50.534;8.316;2022-10-18T04:26:07;24.50;;;6.30;;
3625;SDS011;1827;50.534;8.316;2022-10-18T04:28:33;20.40;;;5.73;;
3625;SDS011;1827;50.534;8.316;2022-10-18T04:30:59;18.00;;;5.90;;
3625;SDS011;1827;50.534;8.316;2022-10-18T04:33:25;21.00;;;5.50;;
3625;SDS011;1827;50.534;8.316;2022-10-18T04:35:51;25.40;;;6.77;;
3625;SDS011;1827;50.534;8.316;2022-10-18T04:38:18;31.70;;;8.53;;
3625;SDS011;1827;50.534;8.316;2022-10-18T04:40:44;25.53;;;8.80;;
3625;SDS011;1827;50.534;8.316;2022-10-18T04:43:10;21.70;;;8.20;;
3625;SDS011;1827;50.534;8.316;2022-10-18T04:45:36;21.27;;;7.33;;
3625;SDS011;1827;50.534;8.316;2022-10-18T04:48:02;19.80;;;6.70;;
3625;SDS011;1827;50.534;8.316;2022-10-18T04:50:28;21.30;;;6.67;;
3625;SDS011;1827;50.534;8.316;2022-10-18T04:52:55;23.13;;;5.60;;
3625;SDS011;1827;50.534;8.316;2022-10-18T04:55:21;20.57;;;6.97;;
3625;SDS011;1827;50.534;8.316;2022-10-18T04:57:46;28.40;;;6.20;;
3625;SDS011;1827;50.534;8.316;2022-10-18T05:00:12;20.87;;;6.20;;
3625;SDS011;1827;50.534;8.316;2022-10-18T05:02:39;23.60;;;6.40;;
3625;SDS011;1827;50.534;8.316;2022-10-18T05:05:04;21.53;;;6.60;;
3625;SDS011;1827;50.534;8.316;2022-10-18T05:07:30;24.13;;;5.83;;
3625;SDS011;1827;50.534;8.316;2022-10-18T05:09:56;20.33;;;5.70;;
3625;SDS011;1827;50.534;8.316;2022-10-18T05:12:22;26.03;;;6.30;;
3625;SDS011;1827;50.534;8.316;2022-10-18T05:14:47;23.57;;;6.50;;
3625;SDS011;1827;50.534;8.316;2022-10-18T05:17:13;21.93;;;6.43;;
3625;SDS011;1827;50.534;8.316;2022-10-18T05:19:39;25.07;;;7.97;;
3625;SDS011;1827;50.534;8.316;2022-10-18T05:22:05;25.53;;;10.37;;
3625;SDS011;1827;50.534;8.316;2022-10-18T05:24:30;24.10;;;8.77;;
3625;SDS011;1827;50.534;8.316;2022-10-18T05:26:56;23.33;;;8.77;;
3625;SDS011;1827;50.534;8.316;2022-10-18T05:29:22;25.50;;;8.40;;
3625;SDS011;1827;50.534;8.316;2022-10-18T05:31:48;25.43;;;8.67;;
3625;SDS011;1827;50.534;8.316;2022-10-18T05:34:15;30.30;;;9.83;;
3625;SDS011;1827;50.534;8.316;2022-10-18T05:36:41;24.30;;;9.40;;
3625;SDS011;1827;50.534;8.316;2022-10-18T05:39:07;20.73;;;7.30;;
3625;SDS011;1827;50.534;8.316;2022-10-18T05:41:32;20.20;;;6.20;;
3625;SDS011;1827;50.534;8.316;2022-10-18T05:44:01;20.13;;;6.13;;
3625;SDS011;1827;50.534;8.316;2022-10-18T05:46:28;21.53;;;7.33;;
3625;SDS011;1827;50.534;8.316;2022-10-18T05:48:54;23.13;;;7.10;;
3625;SDS011;1827;50.534;8.316;2022-10-18T05:51:20;21.77;;;6.13;;
3625;SDS011;1827;50.534;8.316;2022-10-18T05:53:46;23.63;;;7.17;;
3625;SDS011;1827;50.534;8.316;2022-10-18T05:56:12;25.10;;;7.33;;
3625;SDS011;1827;50.534;8.316;2022-10-18T05:58:38;23.70;;;7.23;;
3625;SDS011;1827;50.534;8.316;2022-10-18T06:01:05;19.53;;;6.20;;
3625;SDS011;1827;50.534;8.316;2022-10-18T06:03:32;19.33;;;6.07;;
3625;SDS011;1827;50.534;8.316;2022-10-18T06:06:02;24.10;;;7.10;;
3625;SDS011;1827;50.534;8.316;2022-10-18T06:08:30;19.83;;;5.93;;
3625;SDS011;1827;50.534;8.316;2022-10-18T06:10:55;25.60;;;6.27;;
3625;SDS011;1827;50.534;8.316;2022-10-18T06:13:21;22.97;;;6.53;;
3625;SDS011;1827;50.534;8.316;2022-10-18T06:15:47;20.87;;;6.60;;
3625;SDS011;1827;50.534;8.316;2022-10-18T06:18:13;22.17;;;6.33;;
3625;SDS011;1827;50.534;8.316;2022-10-18T06:20:39;19.70;;;5.67;;
3625;SDS011;1827;50.534;8.316;2022-10-18T06:23:05;24.70;;;6.90;;
3625;SDS011;1827;50.534;8.316;2022-10-18T06:25:30;27.80;;;8.10;;
3625;SDS011;1827;50.534;8.316;2022-10-18T06:27:56;24.43;;;8.53;;
3625;SDS011;1827;50.534;8.316;2022-10-18T06:30:22;29.43;;;11.70;;
3625;SDS011;1827;50.534;8.316;2022-10-18T06:32:47;26.50;;;10.50;;
3625;SDS011;1827;50.534;8.316;2022-10-18T06:35:13;25.43;;;9.83;;
3625;SDS011;1827;50.534;8.316;2022-10-18T06:37:39;25.30;;;8.13;;
3625;SDS011;1827;50.534;8.316;2022-10-18T06:40:05;25.80;;;8.70;;
3625;SDS011;1827;50.534;8.316;2022-10-18T06:42:31;22.27;;;7.60;;
3625;SDS011;1827;50.534;8.316;2022-10-18T06:44:57;22.83;;;8.30;;
3625;SDS011;1827;50.534;8.316;2022-10-18T06:47:24;22.77;;;8.03;;
3625;SDS011;1827;50.534;8.316;2022-10-18T06:49:50;24.30;;;7.60;;
3625;SDS011;1827;50.534;8.316;2022-10-18T06:52:16;20.73;;;6.80;;
3625;SDS011;1827;50.534;8.316;2022-10-18T06:54:42;26.47;;;6.67;;
3625;SDS011;1827;50.534;8.316;2022-10-18T06:57:08;23.23;;;6.30;;
3625;SDS011;1827;50.534;8.316;2022-10-18T06:59:33;23.27;;;6.20;;
3625;SDS011;1827;50.534;8.316;2022-10-18T07:01:59;18.47;;;5.63;;
3625;SDS011;1827;50.534;8.316;2022-10-18T07:04:28;21.73;;;6.50;;
3625;SDS011;1827;50.534;8.316;2022-10-18T07:06:57;21.80;;;5.70;;
3625;SDS011;1827;50.534;8.316;2022-10-18T07:09:22;20.60;;;6.20;;
3625;SDS011;1827;50.534;8.316;2022-10-18T07:11:48;24.57;;;6.30;;
3625;SDS011;1827;50.534;8.316;2022-10-18T07:14:14;17.57;;;5.23;;
3625;SDS011;1827;50.534;8.316;2022-10-18T07:16:39;20.70;;;6.30;;
3625;SDS011;1827;50.534;8.316;2022-10-18T07:19:05;20.47;;;5.60;;
3625;SDS011;1827;50.534;8.316;2022-10-18T07:21:31;19.13;;;5.30;;
3625;SDS011;1827;50.534;8.316;2022-10-18T07:23:57;19.87;;;5.53;;
3625;SDS011;1827;50.534;8.316;2022-10-18T07:26:23;19.60;;;5.63;;
3625;SDS011;1827;50.534;8.316;2022-10-18T07:29:12;20.50;;;5.90;;
3625;SDS011;1827;50.534;8.316;2022-10-18T07:31:37;21.13;;;6.30;;
3625;SDS011;1827;50.534;8.316;2022-10-18T07:34:03;19.10;;;6.10;;
3625;SDS011;1827;50.534;8.316;2022-10-18T07:36:30;25.80;;;5.77;;
3625;SDS011;1827;50.534;8.316;2022-10-18T07:38:56;26.30;;;8.70;;
3625;SDS011;1827;50.534;8.316;2022-10-18T07:41:22;18.83;;;6.70;;
3625;SDS011;1827;50.534;8.316;2022-10-18T07:43:48;21.63;;;5.87;;
3625;SDS011;1827;50.534;8.316;2022-10-18T07:46:15;20.53;;;6.10;;
3625;SDS011;1827;50.534;8.316;2022-10-18T07:48:41;21.63;;;5.97;;
3625;SDS011;1827;50.534;8.316;2022-10-18T07:51:08;18.67;;;4.97;;
3625;SDS011;1827;50.534;8.316;2022-10-18T07:53:34;16.90;;;4.23;;
3625;SDS011;1827;50.534;8.316;2022-10-18T07:56:01;19.10;;;4.13;;
3625;SDS011;1827;50.534;8.316;2022-10-18T07:58:29;18.80;;;3.87;;
3625;SDS011;1827;50.534;8.316;2022-10-18T08:00:56;19.20;;;4.10;;
3625;SDS011;1827;50.534;8.316;2022-10-18T08:03:22;23.13;;;4.40;;
3625;SDS011;1827;50.534;8.316;2022-10-18T08:05:51;19.77;;;5.03;;
3625;SDS011;1827;50.534;8.316;2022-10-18T08:08:18;17.50;;;4.87;;
3625;SDS011;1827;50.534;8.316;2022-10-18T08:10:44;18.40;;;4.27;;
3625;SDS011;1827;50.534;8.316;2022-10-18T08:13:10;17.33;;;5.17;;
3625;SDS011;1827;50.534;8.316;2022-10-18T08:15:36;18.40;;;3.97;;
3625;SDS011;1827;50.534;8.316;2022-10-18T08:18:02;17.00;;;4.47;;
3625;SDS011;1827;50.534;8.316;2022-10-18T08:20:27;16.40;;;3.90;;
3625;SDS011;1827;50.534;8.316;2022-10-18T08:22:54;16.30;;;4.40;;
3625;SDS011;1827;50.534;8.316;2022-10-18T08:25:20;20.10;;;5.43;;
3625;SDS011;1827;50.534;8.316;2022-10-18T08:27:46;20.03;;;5.43;;
3625;SDS011;1827;50.534;8.316;2022-10-18T08:30:11;18.67;;;5.40;;
3625;SDS011;1827;50.534;8.316;2022-10-18T08:32:38;25.70;;;5.40;;
3625;SDS011;1827;50.534;8.316;2022-10-18T08:35:04;20.17;;;4.80;;
3625;SDS011;1827;50.534;8.316;2022-10-18T08:37:30;21.07;;;4.70;;
3625;SDS011;1827;50.534;8.316;2022-10-18T08:39:56;21.97;;;4.80;;
3625;SDS011;1827;50.534;8.316;2022-10-18T08:42:25;21.03;;;4.10;;
3625;SDS011;1827;50.534;8.316;2022-10-18T08:45:11;18.37;;;4.00;;
3625;SDS011;1827;50.534;8.316;2022-10-18T08:47:38;15.40;;;3.30;;
3625;SDS011;1827;50.534;8.316;2022-10-18T08:50:06;16.83;;;3.10;;
3625;SDS011;1827;50.534;8.316;2022-10-18T08:58:15;18.37;;;3.57;;
3625;SDS011;1827;50.534;8.316;2022-10-18T09:00:43;17.90;;;3.57;;
3625;SDS011;1827;50.534;8.316;2022-10-18T09:06:48;17.83;;;3.10;;
3625;SDS011;1827;50.534;8.316;2022-10-18T09:09:42;16.13;;;3.10;;
3625;SDS011;1827;50.534;8.316;2022-10-18T09:17:42;21.00;;;3.30;;
3625;SDS011;1827;50.534;8.316;2022-10-18T09:20:25;14.67;;;3.00;;
3625;SDS011;1827;50.534;8.316;2022-10-18T09:25:41;16.40;;;2.80;;
3625;SDS011;1827;50.534;8.316;2022-10-18T09:30:40;24.20;;;4.87;;
3625;SDS011;1827;50.534;8.316;2022-10-18T09:36:09;21.27;;;3.77;;
3625;SDS011;1827;50.534;8.316;2022-10-18T09:38:44;20.90;;;3.70;;
3625;SDS011;1827;50.534;8.316;2022-10-18T09:43:56;18.43;;;3.40;;
3625;SDS011;1827;50.534;8.316;2022-10-18T09:46:31;17.27;;;2.90;;
3625;SDS011;1827;50.534;8.316;2022-10-18T09:51:47;13.73;;;2.20;;
3625;SDS011;1827;50.534;8.316;2022-10-18T09:57:27;13.90;;;1.90;;
3625;SDS011;1827;50.534;8.316;2022-10-18T09:59:59;15.23;;;2.20;;
3625;SDS011;1827;50.534;8.316;2022-10-18T10:02:30;13.70;;;1.80;;
3625;SDS011;1827;50.534;8.316;2022-10-18T10:04:56;13.90;;;2.30;;
3625;SDS011;1827;50.534;8.316;2022-10-18T10:09:55;15.30;;;1.80;;
3625;SDS011;1827;50.534;8.316;2022-10-18T10:12:33;16.07;;;2.20;;
3625;SDS011;1827;50.534;8.316;2022-10-18T10:17:53;13.40;;;1.67;;
3625;SDS011;1827;50.534;8.316;2022-10-18T10:20:22;14.00;;;1.90;;
3625;SDS011;1827;50.534;8.316;2022-10-18T10:22:51;13.43;;;1.70;;
3625;SDS011;1827;50.534;8.316;2022-10-18T10:25:36;15.10;;;1.50;;
3625;SDS011;1827;50.534;8.316;2022-10-18T10:28:03;13.20;;;1.40;;
3625;SDS011;1827;50.534;8.316;2022-10-18T10:30:36;13.93;;;1.70;;
3625;SDS011;1827;50.534;8.316;2022-10-18T10:33:03;14.00;;;1.47;;
3625;SDS011;1827;50.534;8.316;2022-10-18T10:37:57;18.40;;;1.60;;
3625;SDS011;1827;50.534;8.316;2022-10-18T10:40:29;13.07;;;1.60;;
3625;SDS011;1827;50.534;8.316;2022-10-18T10:43:20;16.77;;;1.70;;
3625;SDS011;1827;50.534;8.316;2022-10-18T10:45:57;15.23;;;1.60;;
3625;SDS011;1827;50.534;8.316;2022-10-18T10:48:30;18.50;;;1.17;;
3625;SDS011;1827;50.534;8.316;2022-10-18T10:51:03;12.23;;;1.27;;
3625;SDS011;1827;50.534;8.316;2022-10-18T10:56:25;14.90;;;1.60;;
3625;SDS011;1827;50.534;8.316;2022-10-18T10:58:54;14.73;;;1.33;;
3625;SDS011;1827;50.534;8.316;2022-10-18T11:01:38;21.33;;;1.60;;
3625;SDS011;1827;50.534;8.316;2022-10-18T11:04:24;13.93;;;1.57;;
3625;SDS011;1827;50.534;8.316;2022-10-18T11:06:56;24.60;;;1.60;;
3625;SDS011;1827;50.534;8.316;2022-10-18T11:09:43;14.43;;;1.40;;
3625;SDS011;1827;50.534;8.316;2022-10-18T11:12:33;14.60;;;1.30;;
3625;SDS011;1827;50.534;8.316;2022-10-18T11:23:24;15.60;;;1.57;;
3625;SDS011;1827;50.534;8.316;2022-10-18T11:39:57;15.43;;;1.43;;
3625;SDS011;1827;50.534;8.316;2022-10-18T11:45:52;15.60;;;1.20;;
3625;SDS011;1827;50.534;8.316;2022-10-18T11:48:20;13.50;;;1.00;;
3625;SDS011;1827;50.534;8.316;2022-10-18T11:59:30;12.53;;;1.00;;
3625;SDS011;1827;50.534;8.316;2022-10-18T12:05:01;18.40;;;1.30;;
3625;SDS011;1827;50.534;8.316;2022-10-18T12:07:29;13.77;;;1.13;;
3625;SDS011;1827;50.534;8.316;2022-10-18T12:10:02;13.50;;;1.07;;
3625;SDS011;1827;50.534;8.316;2022-10-18T12:12:32;16.80;;;1.20;;
3625;SDS011;1827;50.534;8.316;2022-10-18T12:15:12;16.30;;;1.10;;
3625;SDS011;1827;50.534;8.316;2022-10-18T12:17:50;14.90;;;1.23;;
3625;SDS011;1827;50.534;8.316;2022-10-18T12:20:24;13.10;;;1.20;;
3625;SDS011;1827;50.534;8.316;2022-10-18T12:25:41;18.80;;;1.60;;
3625;SDS011;1827;50.534;8.316;2022-10-18T12:33:45;17.57;;;1.60;;
3625;SDS011;1827;50.534;8.316;2022-10-18T12:39:09;15.23;;;1.40;;
3625;SDS011;1827;50.534;8.316;2022-10-18T12:41:40;15.47;;;1.50;;
3625;SDS011;1827;50.534;8.316;2022-10-18T12:44:31;17.60;;;1.60;;
3625;SDS011;1827;50.534;8.316;2022-10-18T12:46:59;17.40;;;1.30;;
3625;SDS011;1827;50.534;8.316;2022-10-18T12:49:33;17.47;;;1.60;;
3625;SDS011;1827;50.534;8.316;2022-10-18T12:52:05;14.20;;;1.47;;
3625;SDS011;1827;50.534;8.316;2022-10-18T12:54:59;14.10;;;1.30;;
3625;SDS011;1827;50.534;8.316;2022-10-18T12:57:59;12.50;;;1.40;;
3625;SDS011;1827;50.534;8.316;2022-10-18T13:08:35;13.00;;;1.47;;
3625;SDS011;1827;50.534;8.316;2022-10-18T13:22:14;17.53;;;1.90;;
3625;SDS011;1827;50.534;8.316;2022-10-18T13:30:32;13.07;;;1.60;;
3625;SDS011;1827;50.534;8.316;2022-10-18T13:33:51;15.90;;;2.00;;
3625;SDS011;1827;50.534;8.316;2022-10-18T13:41:22;19.93;;;2.00;;
3625;SDS011;1827;50.534;8.316;2022-10-18T14:06:06;13.83;;;1.70;;
3625;SDS011;1827;50.534;8.316;2022-10-18T14:08:45;19.07;;;1.77;;
3625;SDS011;1827;50.534;8.316;2022-10-18T14:11:36;15.00;;;1.50;;
3625;SDS011;1827;50.534;8.316;2022-10-18T14:22:11;16.60;;;2.30;;
3625;SDS011;1827;50.534;8.316;2022-10-18T14:24:49;16.10;;;2.60;;
3625;SDS011;1827;50.534;8.316;2022-10-18T14:27:25;18.83;;;2.47;;
3625;SDS011;1827;50.534;8.316;2022-10-18T14:32:43;18.83;;;2.30;;
3625;SDS011;1827;50.534;8.316;2022-10-18T14:35:21;16.10;;;2.40;;
3625;SDS011;1827;50.534;8.316;2022-10-18T14:37:49;18.23;;;2.47;;
3625;SDS011;1827;50.534;8.316;2022-10-18T14:40:34;26.47;;;3.40;;
3625;SDS011;1827;50.534;8.316;2022-10-18T14:43:13;26.50;;;2.97;;
3625;SDS011;1827;50.534;8.316;2022-10-18T14:45:43;13.83;;;1.60;;
3625;SDS011;1827;50.534;8.316;2022-10-18T14:50:39;20.27;;;2.83;;
3625;SDS011;1827;50.534;8.316;2022-10-18T14:53:08;14.97;;;2.50;;
3625;SDS011;1827;50.534;8.316;2022-10-18T14:55:53;22.40;;;6.43;;
3625;SDS011;1827;50.534;8.316;2022-10-18T14:58:20;21.57;;;5.00;;
3625;SDS011;1827;50.534;8.316;2022-10-18T15:00:46;25.40;;;6.40;;
3625;SDS011;1827;50.534;8.316;2022-10-18T15:03:13;29.63;;;7.00;;
3625;SDS011;1827;50.534;8.316;2022-10-18T15:05:57;21.97;;;5.67;;
3625;SDS011;1827;50.534;8.316;2022-10-18T15:08:36;23.77;;;4.17;;
3625;SDS011;1827;50.534;8.316;2022-10-18T15:11:04;16.40;;;3.30;;
3625;SDS011;1827;50.534;8.316;2022-10-18T15:13:31;20.13;;;3.00;;
3625;SDS011;1827;50.534;8.316;2022-10-18T15:15:59;21.60;;;2.70;;
3625;SDS011;1827;50.534;8.316;2022-10-18T15:18:26;20.53;;;2.80;;
3625;SDS011;1827;50.534;8.316;2022-10-18T15:23:48;17.80;;;2.87;;
3625;SDS011;1827;50.534;8.316;2022-10-18T15:26:17;23.40;;;3.43;;
3625;SDS011;1827;50.534;8.316;2022-10-18T15:28:48;25.83;;;3.57;;
3625;SDS011;1827;50.534;8.316;2022-10-18T15:33:53;21.27;;;3.37;;
3625;SDS011;1827;50.534;8.316;2022-10-18T15:36:39;24.13;;;3.43;;
3625;SDS011;1827;50.534;8.316;2022-10-18T15:39:18;25.00;;;3.47;;
3625;SDS011;1827;50.534;8.316;2022-10-18T15:41:47;24.90;;;3.40;;
3625;SDS011;1827;50.534;8.316;2022-10-18T15:46:39;24.30;;;3.80;;
3625;SDS011;1827;50.534;8.316;2022-10-18T15:52:27;16.90;;;3.60;;
3625;SDS011;1827;50.534;8.316;2022-10-18T15:54:56;25.63;;;4.50;;
3625;SDS011;1827;50.534;8.316;2022-10-18T15:57:22;31.07;;;4.37;;
3625;SDS011;1827;50.534;8.316;2022-10-18T15:59:50;29.70;;;4.10;;
3625;SDS011;1827;50.534;8.316;2022-10-18T16:02:18;36.40;;;4.53;;
3625;SDS011;1827;50.534;8.316;2022-10-18T16:04:44;25.63;;;5.10;;
3625;SDS011;1827;50.534;8.316;2022-10-18T16:07:11;21.00;;;5.27;;
3625;SDS011;1827;50.534;8.316;2022-10-18T16:09:37;23.53;;;4.70;;
3625;SDS011;1827;50.534;8.316;2022-10-18T16:12:03;23.70;;;5.60;;
3625;SDS011;1827;50.534;8.316;2022-10-18T16:14:29;30.53;;;5.93;;
3625;SDS011;1827;50.534;8.316;2022-10-18T16:16:59;29.90;;;6.20;;
3625;SDS011;1827;50.534;8.316;2022-10-18T16:19:27;28.90;;;6.10;;
3625;SDS011;1827;50.534;8.316;2022-10-18T16:21:53;44.23;;;6.60;;
3625;SDS011;1827;50.534;8.316;2022-10-18T16:24:19;32.13;;;5.93;;
3625;SDS011;1827;50.534;8.316;2022-10-18T16:26:45;21.23;;;6.70;;
3625;SDS011;1827;50.534;8.316;2022-10-18T16:29:12;23.97;;;6.33;;
3625;SDS011;1827;50.534;8.316;2022-10-18T16:31:40;22.03;;;6.07;;
3625;SDS011;1827;50.534;8.316;2022-10-18T16:34:06;24.53;;;5.50;;
3625;SDS011;1827;50.534;8.316;2022-10-18T16:36:35;27.33;;;6.30;;
3625;SDS011;1827;50.534;8.316;2022-10-18T16:39:02;33.00;;;9.40;;
3625;SDS011;1827;50.534;8.316;2022-10-18T16:41:32;31.17;;;7.60;;
3625;SDS011;1827;50.534;8.316;2022-10-18T16:43:58;31.37;;;6.87;;
3625;SDS011;1827;50.534;8.316;2022-10-18T16:46:25;26.40;;;6.53;;
3625;SDS011;1827;50.534;8.316;2022-10-18T16:48:53;26.97;;;5.87;;
3625;SDS011;1827;50.534;8.316;2022-10-18T16:51:19;24.90;;;6.40;;
3625;SDS011;1827;50.534;8.316;2022-10-18T16:53:45;26.20;;;5.90;;
3625;SDS011;1827;50.534;8.316;2022-10-18T16:56:12;22.57;;;5.07;;
3625;SDS011;1827;50.534;8.316;2022-10-18T16:58:40;26.60;;;5.90;;
3625;SDS011;1827;50.534;8.316;2022-10-18T17:01:05;27.60;;;7.70;;
3625;SDS011;1827;50.534;8.316;2022-10-18T17:03:34;29.80;;;6.53;;
3625;SDS011;1827;50.534;8.316;2022-10-18T17:05:59;32.87;;;6.00;;
3625;SDS011;1827;50.534;8.316;2022-10-18T17:08:26;21.33;;;6.07;;
3625;SDS011;1827;50.534;8.316;2022-10-18T17:10:53;25.53;;;8.07;;
3625;SDS011;1827;50.534;8.316;2022-10-18T17:13:21;28.80;;;7.20;;
3625;SDS011;1827;50.534;8.316;2022-10-18T17:15:48;31.83;;;7.83;;
3625;SDS011;1827;50.534;8.316;2022-10-18T17:18:16;31.33;;;7.67;;
3625;SDS011;1827;50.534;8.316;2022-10-18T17:20:46;42.43;;;8.40;;
3625;SDS011;1827;50.534;8.316;2022-10-18T17:23:12;42.10;;;14.80;;
3625;SDS011;1827;50.534;8.316;2022-10-18T17:25:39;35.87;;;10.17;;
3625;SDS011;1827;50.534;8.316;2022-10-18T17:28:09;40.43;;;9.33;;
3625;SDS011;1827;50.534;8.316;2022-10-18T17:30:37;34.60;;;10.40;;
3625;SDS011;1827;50.534;8.316;2022-10-18T17:33:04;33.63;;;8.53;;
3625;SDS011;1827;50.534;8.316;2022-10-18T17:35:30;27.00;;;8.43;;
3625;SDS011;1827;50.534;8.316;2022-10-18T17:37:56;37.13;;;7.90;;
3625;SDS011;1827;50.534;8.316;2022-10-18T17:40:22;32.63;;;7.47;;
3625;SDS011;1827;50.534;8.316;2022-10-18T17:42:49;33.50;;;8.97;;
3625;SDS011;1827;50.534;8.316;2022-10-18T17:45:15;29.43;;;8.37;;
3625;SDS011;1827;50.534;8.316;2022-10-18T17:47:42;39.53;;;7.10;;
3625;SDS011;1827;50.534;8.316;2022-10-18T17:50:08;24.50;;;6.40;;
3625;SDS011;1827;50.534;8.316;2022-10-18T17:52:34;24.03;;;6.50;;
3625;SDS011;1827;50.534;8.316;2022-10-18T17:54:59;31.73;;;5.90;;
3625;SDS011;1827;50.534;8.316;2022-10-18T17:57:25;29.30;;;6.10;;
3625;SDS011;1827;50.534;8.316;2022-10-18T17:59:51;26.37;;;6.07;;
3625;SDS011;1827;50.534;8.316;2022-10-18T18:02:19;34.07;;;7.60;;
3625;SDS011;1827;50.534;8.316;2022-10-18T18:04:45;28.63;;;8.03;;
3625;SDS011;1827;50.534;8.316;2022-10-18T18:07:10;31.63;;;9.77;;
3625;SDS011;1827;50.534;8.316;2022-10-18T18:09:36;32.43;;;7.90;;
3625;SDS011;1827;50.534;8.316;2022-10-18T18:12:02;46.27;;;12.43;;
3625;SDS011;1827;50.534;8.316;2022-10-18T18:14:28;35.83;;;10.37;;
3625;SDS011;1827;50.534;8.316;2022-10-18T18:16:54;51.10;;;13.70;;
3625;SDS011;1827;50.534;8.316;2022-10-18T18:19:20;45.40;;;13.30;;
3625;SDS011;1827;50.534;8.316;2022-10-18T18:21:47;48.83;;;12.30;;
3625;SDS011;1827;50.534;8.316;2022-10-18T18:24:17;47.50;;;11.20;;
3625;SDS011;1827;50.534;8.316;2022-10-18T18:26:48;45.17;;;15.97;;